Evendale, Ohio
Current Conditions -  °F | °C
As of 5:38 AM on Thursday 27 Nov 2014 (Local Time) from KHAO Reporting Station
Overcast Overcast  
Wind Chill: 23°   Ceiling: 3100
Heat Index: 30°   Visibility: 8mi
Dew Point: 24°   Wind: 7mph
Humidity: 79%   Direction: 320°NW
Pressure: 30.16"   Gusts: NA
Location:  39.2779°N, 84.4005°W
Report Text: KHAO 271038Z AUTO 32006KT 8SM OVC031 M01/M04 A3016 RMK AO2 T10111044
Loading
Personal Weather Stations






























Interactive Weather Map New forecast layout! Learn more

10-Day Weather Forecast

Advertisements
Track Severe Weather on mobile